M. Luther — WDC7372 — position and weather

sailwx.info

Track history (hours):
 
Tides and Currents Weather Stations Pressure Air Temp Water Temp Dewpoint Dewpoint Depression Visibility Wind Speed Wind Dir Waves Ship Positions

M. Luther

Owner: Salmon Bay Barge Line, Inc., Seattle, WA. More information available from US FCC via Universal Licensing System and Coast Guard Vessel Documentation Center.

Last reported at 2014-Nov-29 02:33 UTC. Time now 2014-Nov-29 03:27 UTC.
Position N 48°32' W 122°45'.

Length 28 m; draft 4.1 m.

Type: Tug. MMSI: 367070410.

Date/timePositionNaut miles runAvg speedWind from/ knotsBaromVisibWave heightAir tempDewpointWater temp
2014-Nov-29 02:33N 48°32' W 122°45'7 7.0
2014-Nov-29 01:33N 48°25' W 122°44'10 7.1
2014-Nov-29 00:05N 48°15' W 122°47'12 7.8
2014-Nov-28 22:33N 48°05' W 122°38'3 9.0
2014-Nov-28 22:11N 48°02' W 122°37'6 8.9
2014-Nov-28 21:33N 47°57' W 122°32'0 8.0
2014-Nov-28 21:31N 47°57' W 122°32'9 9.0
2014-Nov-28 20:33N 47°49' W 122°27'0 8.0
2014-Nov-28 20:32N 47°49' W 122°27'8 8.4
2014-Nov-28 19:33N 47°41' W 122°27'0 7.8
2014-Nov-28 19:32N 47°40' W 122°27'6 6.3
2014-Nov-28 18:33N 47°35' W 122°22'0 0.4
2014-Nov-28 18:32N 47°35' W 122°22'2 2.2
2014-Nov-28 17:34N 47°33' W 122°21'0 0.0
2014-Nov-28 17:31N 47°33' W 122°21'  
2014-Nov-19 05:28N 47°33' W 122°21'0 0.0
2014-Nov-19 05:28N 47°33' W 122°21'0 0.0
2014-Nov-19 04:33N 47°33' W 122°21'0 0.0
2014-Nov-19 04:33N 47°33' W 122°21'5 4.8
2014-Nov-19 03:34N 47°37' W 122°25'0 2.5
2014-Nov-19 03:33N 47°37' W 122°25'7 6.6
2014-Nov-19 02:34N 47°43' W 122°28'  
Track history (hours):
 
Tides and Currents Weather Stations Pressure Air Temp Water Temp Dewpoint Dewpoint Depression Visibility Wind Speed Wind Dir Waves Ship Positions

M. Luther

Owner: Salmon Bay Barge Line, Inc., Seattle, WA. More information available from US FCC via Universal Licensing System and Coast Guard Vessel Documentation Center.

Last reported at 2014-Nov-29 02:33 UTC. Time now 2014-Nov-29 03:27 UTC.
Position N 48°32' W 122°45'.

Length 28 m; draft 4.1 m.

Type: Tug. MMSI: 367070410.

Date/timePositionNaut miles runAvg speedWind from/ knotsBaromVisibWave heightAir tempDewpointWater temp
2014-Nov-29 02:33N 48°32' W 122°45'7 7.0
2014-Nov-29 01:33N 48°25' W 122°44'10 7.1
2014-Nov-29 00:05N 48°15' W 122°47'12 7.8
2014-Nov-28 22:33N 48°05' W 122°38'3 9.0
2014-Nov-28 22:11N 48°02' W 122°37'6 8.9
2014-Nov-28 21:33N 47°57' W 122°32'0 8.0
2014-Nov-28 21:31N 47°57' W 122°32'9 9.0
2014-Nov-28 20:33N 47°49' W 122°27'0 8.0
2014-Nov-28 20:32N 47°49' W 122°27'8 8.4
2014-Nov-28 19:33N 47°41' W 122°27'0 7.8
2014-Nov-28 19:32N 47°40' W 122°27'6 6.3
2014-Nov-28 18:33N 47°35' W 122°22'0 0.4
2014-Nov-28 18:32N 47°35' W 122°22'2 2.2
2014-Nov-28 17:34N 47°33' W 122°21'0 0.0
2014-Nov-28 17:31N 47°33' W 122°21'  
2014-Nov-19 05:28N 47°33' W 122°21'0 0.0
2014-Nov-19 05:28N 47°33' W 122°21'0 0.0
2014-Nov-19 04:33N 47°33' W 122°21'0 0.0
2014-Nov-19 04:33N 47°33' W 122°21'5 4.8
2014-Nov-19 03:34N 47°37' W 122°25'0 2.5
2014-Nov-19 03:33N 47°37' W 122°25'7 6.6
2014-Nov-19 02:34N 47°43' W 122°28'  

Dump ship's entire track history